createdAt,value
2023-03-15T00:00:32.372Z,100066.53
2023-03-15T00:03:00.079Z,100070.13
2023-03-15T00:05:28.268Z,100080.63
2023-03-15T00:07:55.924Z,100079.63
2023-03-15T00:10:23.608Z,100101.66
2023-03-15T00:12:52.702Z,100101.81
2023-03-15T00:15:20.607Z,100111.72
2023-03-15T00:17:48.569Z,100115.22
2023-03-15T00:20:16.455Z,100117.25
2023-03-15T00:22:44.140Z,100115.69
2023-03-15T00:25:11.937Z,100106.78
2023-03-15T00:27:40.067Z,100104.31
2023-03-15T00:30:10.720Z,100115.81
2023-03-15T00:32:38.427Z,100109.66
2023-03-15T00:35:06.904Z,100117.03
2023-03-15T00:37:55.879Z,100122.38
2023-03-15T00:40:24.054Z,100128.03
2023-03-15T00:42:52.274Z,100135.06
2023-03-15T00:45:22.641Z,100137.56
2023-03-15T00:47:50.756Z,100140.66
2023-03-15T00:50:18.868Z,100139.28
2023-03-15T00:52:46.815Z,100127.69
2023-03-15T00:55:16.119Z,100145.78
2023-03-15T00:57:45.337Z,100130.88
2023-03-15T01:00:16.445Z,100147.38
2023-03-15T01:02:45.638Z,100127.50
2023-03-15T01:05:14.195Z,100129.06
2023-03-15T01:07:41.958Z,100147.88
2023-03-15T01:10:10.380Z,100134.03
2023-03-15T01:12:38.055Z,100121.91
2023-03-15T01:15:08.231Z,100118.81
2023-03-15T01:17:36.054Z,100111.31
2023-03-15T01:20:06.605Z,100113.72
2023-03-15T01:22:34.381Z,100127.63
2023-03-15T01:25:02.343Z,100106.59
2023-03-15T01:27:30.069Z,100118.06
2023-03-15T01:29:57.863Z,100136.31
2023-03-15T01:32:25.591Z,100126.38
2023-03-15T01:34:53.271Z,100116.41
2023-03-15T01:37:24.715Z,100129.16
2023-03-15T01:39:52.719Z,100120.25
2023-03-15T01:42:21.026Z,100120.00
2023-03-15T01:44:55.093Z,100137.41
2023-03-15T01:47:26.071Z,100141.53
2023-03-15T01:49:57.599Z,100132.56
2023-03-15T01:52:30.366Z,100143.69
2023-03-15T01:55:00.109Z,100145.91
2023-03-15T01:57:32.638Z,100160.84
2023-03-15T02:00:08.216Z,100162.50
2023-03-15T02:02:35.986Z,100145.56
2023-03-15T02:05:06.989Z,100161.00
2023-03-15T02:07:36.464Z,100174.19
2023-03-15T02:10:06.725Z,100179.34
2023-03-15T02:12:36.726Z,100184.22
2023-03-15T02:15:07.669Z,100181.75
2023-03-15T02:17:37.705Z,100183.34
2023-03-15T02:20:15.599Z,100184.34
2023-03-15T02:22:48.871Z,100171.91
2023-03-15T02:25:21.350Z,100178.91
2023-03-15T02:27:51.746Z,100195.59
2023-03-15T02:30:19.819Z,100193.00
2023-03-15T02:32:47.727Z,100198.47
2023-03-15T02:35:24.403Z,100191.09
2023-03-15T02:37:52.168Z,100191.16
2023-03-15T02:40:22.407Z,100185.41
2023-03-15T02:42:54.043Z,100183.88
2023-03-15T02:45:22.160Z,100202.09
2023-03-15T02:47:50.249Z,100219.31
2023-03-15T02:50:18.137Z,100214.06
2023-03-15T02:52:45.866Z,100221.63
2023-03-15T02:55:13.600Z,100223.84
2023-03-15T02:57:41.287Z,100228.06
2023-03-15T03:00:14.524Z,100230.06
2023-03-15T03:02:44.078Z,100226.84
2023-03-15T03:05:12.116Z,100223.03
2023-03-15T03:07:40.026Z,100235.97
2023-03-15T03:10:08.440Z,100244.19
2023-03-15T03:12:36.213Z,100250.09
2023-03-15T03:15:04.847Z,100270.19
2023-03-15T03:17:37.416Z,100264.16
2023-03-15T03:20:08.027Z,100279.56
2023-03-15T03:22:35.725Z,100270.31
2023-03-15T03:25:03.690Z,100289.13
2023-03-15T03:27:31.572Z,100279.22
2023-03-15T03:30:00.252Z,100289.19
2023-03-15T03:32:28.009Z,100262.66
2023-03-15T03:34:57.112Z,100275.03
2023-03-15T03:37:24.986Z,100285.06
2023-03-15T03:39:53.045Z,100290.13
2023-03-15T03:42:20.754Z,100293.91
2023-03-15T03:44:50.311Z,100295.63
2023-03-15T03:47:18.050Z,100306.38
2023-03-15T03:49:45.786Z,100315.75
2023-03-15T03:52:14.991Z,100316.09
2023-03-15T03:54:42.864Z,100299.63
2023-03-15T03:57:11.325Z,100312.09
2023-03-15T03:59:39.164Z,100322.59
2023-03-15T04:02:06.931Z,100324.88
2023-03-15T04:04:34.848Z,100322.75
2023-03-15T04:07:02.608Z,100332.72
2023-03-15T04:09:31.941Z,100343.31
2023-03-15T04:12:01.694Z,100335.72
2023-03-15T04:14:29.669Z,100344.16
2023-03-15T04:16:57.401Z,100329.53
2023-03-15T04:19:25.206Z,100343.31
2023-03-15T04:21:53.005Z,100341.91
2023-03-15T04:24:20.816Z,100354.53
2023-03-15T04:26:50.001Z,100357.75
2023-03-15T04:29:17.734Z,100354.84
2023-03-15T04:31:54.541Z,100362.75
2023-03-15T04:34:22.197Z,100351.94
2023-03-15T04:36:49.880Z,100356.22
2023-03-15T04:39:17.617Z,100356.59
2023-03-15T04:41:45.383Z,100374.44
2023-03-15T04:44:16.250Z,100363.63
2023-03-15T04:46:44.116Z,100372.91
2023-03-15T04:49:11.961Z,100374.44
2023-03-15T04:51:39.723Z,100374.66
2023-03-15T04:54:07.615Z,100377.94
2023-03-15T04:56:36.660Z,100390.34
2023-03-15T04:59:04.586Z,100383.97
2023-03-15T05:01:33.738Z,100400.72
2023-03-15T05:04:01.445Z,100397.97
2023-03-15T05:06:29.453Z,100389.53
2023-03-15T05:08:57.351Z,100387.91
2023-03-15T05:11:25.121Z,100394.81
2023-03-15T05:13:53.482Z,100395.50
2023-03-15T05:16:21.302Z,100414.38
2023-03-15T05:18:50.409Z,100411.31
2023-03-15T05:21:18.217Z,100405.13
2023-03-15T05:23:45.944Z,100409.00
2023-03-15T05:26:14.437Z,100406.41
2023-03-15T05:28:45.390Z,100403.22
2023-03-15T05:31:13.178Z,100431.25
2023-03-15T05:33:46.800Z,100430.53
2023-03-15T05:36:16.202Z,100425.63
2023-03-15T05:38:45.615Z,100439.53
2023-03-15T05:41:18.218Z,100454.59
2023-03-15T05:43:46.319Z,100454.84
2023-03-15T05:46:14.073Z,100462.66
2023-03-15T05:48:41.883Z,100458.56
2023-03-15T05:51:09.683Z,100467.53
2023-03-15T05:53:38.780Z,100476.66
2023-03-15T05:56:06.882Z,100470.44
2023-03-15T05:58:34.681Z,100483.44
2023-03-15T06:01:04.073Z,100485.97
2023-03-15T06:03:32.716Z,100488.69
2023-03-15T06:06:01.095Z,100497.97
2023-03-15T06:08:28.854Z,100506.06
2023-03-15T06:10:58.081Z,100489.19
2023-03-15T06:13:25.922Z,100493.72
2023-03-15T06:15:53.614Z,100501.69
2023-03-15T06:18:21.377Z,100522.00
2023-03-15T06:20:49.135Z,100524.09
2023-03-15T06:23:16.913Z,100530.28
2023-03-15T06:25:45.351Z,100525.16
2023-03-15T06:28:14.527Z,100525.44
2023-03-15T06:30:42.326Z,100527.94
2023-03-15T06:33:10.121Z,100515.59
2023-03-15T06:35:38.107Z,100534.91
2023-03-15T06:38:06.110Z,100536.63
2023-03-15T06:40:33.830Z,100524.22
2023-03-15T06:43:06.012Z,100558.19
2023-03-15T06:45:35.900Z,100558.13
2023-03-15T06:48:03.657Z,100551.00
2023-03-15T06:50:40.637Z,100558.44
2023-03-15T06:53:14.227Z,100557.06
2023-03-15T06:55:56.919Z,100566.41
2023-03-15T06:58:24.668Z,100560.19
2023-03-15T07:00:53.897Z,100573.56
2023-03-15T07:03:22.413Z,100577.81
2023-03-15T07:05:52.619Z,100582.66
2023-03-15T07:08:20.527Z,100568.44
2023-03-15T07:10:48.474Z,100598.06
2023-03-15T07:13:18.649Z,100602.91
2023-03-15T07:15:47.814Z,100591.13
2023-03-15T07:18:16.953Z,100599.91
2023-03-15T07:20:44.659Z,100575.59
2023-03-15T07:23:12.339Z,100608.91
2023-03-15T07:25:53.982Z,100604.22
2023-03-15T07:28:23.078Z,100613.59
2023-03-15T07:30:55.366Z,100605.66
2023-03-15T07:33:25.335Z,100632.91
2023-03-15T07:35:54.658Z,100617.53
2023-03-15T07:38:23.063Z,100635.13
2023-03-15T07:40:50.762Z,100625.28
2023-03-15T07:43:18.640Z,100610.13
2023-03-15T07:45:46.522Z,100624.97
2023-03-15T07:48:14.345Z,100634.75
2023-03-15T07:50:43.626Z,100640.56
2023-03-15T07:53:11.431Z,100649.81
2023-03-15T07:55:39.147Z,100645.31
2023-03-15T07:58:07.021Z,100633.66
2023-03-15T08:00:34.733Z,100645.50
2023-03-15T08:03:02.455Z,100671.22
2023-03-15T08:05:30.444Z,100664.09
2023-03-15T08:07:59.551Z,100667.78
2023-03-15T08:10:27.291Z,100666.03
2023-03-15T08:12:54.995Z,100666.59
2023-03-15T08:15:23.030Z,100663.97
2023-03-15T08:17:51.099Z,100669.72
2023-03-15T08:20:56.942Z,100684.91
2023-03-15T08:23:32.051Z,100694.38
2023-03-15T08:25:59.777Z,100689.66
2023-03-15T08:28:27.428Z,100711.63
2023-03-15T08:30:55.128Z,100693.81
2023-03-15T08:33:23.362Z,100711.53
2023-03-15T08:35:53.906Z,100727.78
2023-03-15T08:38:21.627Z,100727.50
2023-03-15T08:40:50.909Z,100762.28
2023-03-15T08:43:18.584Z,100742.63
2023-03-15T08:46:00.215Z,100755.66
2023-03-15T08:48:28.977Z,100738.69
2023-03-15T08:50:58.269Z,100753.69
2023-03-15T08:53:25.964Z,100735.31
2023-03-15T08:55:55.058Z,100776.28
2023-03-15T08:58:22.724Z,100788.59
2023-03-15T09:00:51.515Z,100767.19
2023-03-15T09:03:19.276Z,100789.25
2023-03-15T09:05:47.288Z,100774.56
2023-03-15T09:08:16.969Z,100756.09
2023-03-15T09:10:44.993Z,100784.25
2023-03-15T09:13:14.048Z,100766.50
2023-03-15T09:15:41.713Z,100767.38
2023-03-15T09:18:09.412Z,100754.69
2023-03-15T09:20:39.658Z,100764.94
2023-03-15T09:23:07.793Z,100763.94
2023-03-15T09:25:37.049Z,100788.88
2023-03-15T09:28:04.963Z,100789.19
2023-03-15T09:30:34.169Z,100783.47
2023-03-15T09:33:01.984Z,100787.13
2023-03-15T09:35:29.745Z,100783.22
2023-03-15T09:37:57.659Z,100787.63
2023-03-15T09:40:27.793Z,100783.72
2023-03-15T09:43:01.257Z,100785.78
2023-03-15T09:45:41.593Z,100781.09
2023-03-15T09:48:11.965Z,100773.25
2023-03-15T09:50:43.366Z,100791.00
2023-03-15T09:53:14.302Z,100793.19
2023-03-15T09:55:43.470Z,100788.00
2023-03-15T09:58:13.590Z,100800.34
2023-03-15T10:00:45.825Z,100812.09
2023-03-15T10:03:19.771Z,100788.06
2023-03-15T10:05:50.042Z,100783.34
2023-03-15T10:08:19.310Z,100795.25
2023-03-15T10:10:52.298Z,100784.19
2023-03-15T10:13:29.120Z,100780.63
2023-03-15T10:16:05.717Z,100783.09
2023-03-15T10:18:48.435Z,100780.31
2023-03-15T10:21:27.739Z,100788.88
2023-03-15T10:23:55.702Z,100782.88
2023-03-15T10:26:26.126Z,100791.56
2023-03-15T10:28:55.061Z,100812.78
2023-03-15T10:31:36.877Z,100812.38
2023-03-15T10:34:12.131Z,100812.97
2023-03-15T10:36:45.312Z,100781.84
2023-03-15T10:39:14.120Z,100784.13
2023-03-15T10:41:45.203Z,100785.44
2023-03-15T10:44:16.337Z,100775.06
2023-03-15T10:47:02.957Z,100781.25
2023-03-15T10:49:36.585Z,100778.38
2023-03-15T10:52:05.684Z,100790.50
2023-03-15T10:54:34.872Z,100780.19
2023-03-15T10:57:04.589Z,100806.00
2023-03-15T10:59:35.453Z,100783.31
2023-03-15T11:02:22.486Z,100815.03
2023-03-15T11:04:52.320Z,100820.28
2023-03-15T11:07:20.054Z,100799.13
2023-03-15T11:13:21.882Z,100805.31
2023-03-15T11:15:55.794Z,100800.06
2023-03-15T11:18:30.994Z,100814.72
2023-03-15T11:20:59.280Z,100804.63
2023-03-15T11:23:28.923Z,100809.00
2023-03-15T11:25:57.222Z,100809.94
2023-03-15T11:28:28.224Z,100806.38
2023-03-15T11:30:56.936Z,100825.47
2023-03-15T11:33:39.634Z,100812.81
2023-03-15T11:36:12.544Z,100813.44
2023-03-15T11:38:43.980Z,100824.28
2023-03-15T11:41:19.732Z,100816.78
2023-03-15T11:43:53.285Z,100818.53
2023-03-15T11:46:27.046Z,100833.63
2023-03-15T11:49:01.141Z,100837.78
2023-03-15T11:51:29.715Z,100838.63
2023-03-15T11:54:06.710Z,100843.00
2023-03-15T11:56:48.395Z,100856.63
2023-03-15T11:59:18.350Z,100845.66
2023-03-15T12:02:37.100Z,100851.50
2023-03-15T12:05:17.654Z,100848.13
2023-03-15T12:08:00.656Z,100858.44
2023-03-15T12:10:34.983Z,100849.22
2023-03-15T12:13:16.124Z,100839.47
2023-03-15T12:15:47.173Z,100848.28
2023-03-15T12:18:17.703Z,100852.88
2023-03-15T12:20:51.834Z,100871.75
2023-03-15T12:23:29.795Z,100856.84
2023-03-15T12:25:58.807Z,100852.25
2023-03-15T12:28:29.779Z,100825.22
2023-03-15T12:31:08.264Z,100847.91
2023-03-15T12:33:46.609Z,100847.06
2023-03-15T12:36:21.340Z,100837.69
2023-03-15T12:39:01.166Z,100852.47
2023-03-15T12:41:37.642Z,100842.88
2023-03-15T12:44:25.474Z,100850.78
2023-03-15T12:46:58.483Z,100841.38
2023-03-15T12:49:32.114Z,100837.75
2023-03-15T12:52:03.114Z,100858.56
2023-03-15T12:54:35.969Z,100867.69
2023-03-15T12:57:05.081Z,100867.19
2023-03-15T12:59:36.808Z,100860.25
2023-03-15T13:02:42.297Z,100856.66
2023-03-15T13:05:20.704Z,100831.91
2023-03-15T13:08:06.615Z,100832.13
2023-03-15T13:10:39.109Z,100835.38
2023-03-15T13:13:14.665Z,100826.97
2023-03-15T13:15:45.758Z,100835.47
2023-03-15T13:18:18.325Z,100832.66
2023-03-15T13:20:54.883Z,100862.84
2023-03-15T13:23:28.629Z,100869.44
2023-03-15T13:26:06.482Z,100847.00
2023-03-15T13:28:37.536Z,100845.72
2023-03-15T13:31:13.654Z,100846.47
2023-03-15T13:33:41.658Z,100856.81
2023-03-15T13:36:15.027Z,100842.66
2023-03-15T13:38:45.484Z,100843.50
2023-03-15T13:41:22.708Z,100855.47
2023-03-15T13:43:51.892Z,100856.06
2023-03-15T13:49:31.723Z,100890.28
2023-03-15T13:51:59.625Z,100891.72
2023-03-15T13:54:31.257Z,100894.72
2023-03-15T13:57:01.765Z,100869.09
2023-03-15T14:05:13.522Z,100866.63
2023-03-15T14:07:45.104Z,100870.28
2023-03-15T14:10:27.666Z,100879.28
2023-03-15T14:12:56.467Z,100871.41
2023-03-15T14:15:26.613Z,100871.44
2023-03-15T14:18:00.148Z,100879.63
2023-03-15T14:20:30.809Z,100905.31
2023-03-15T14:23:01.743Z,100876.34
2023-03-15T14:25:35.824Z,100881.22
2023-03-15T14:28:04.711Z,100851.13
2023-03-15T14:30:36.570Z,100880.00
2023-03-15T14:33:07.495Z,100871.03
2023-03-15T14:35:43.456Z,100872.09
2023-03-15T14:38:18.922Z,100876.59
2023-03-15T14:40:48.333Z,100869.72
2023-03-15T14:43:16.374Z,100875.94
2023-03-15T14:45:45.993Z,100882.06
2023-03-15T14:48:16.219Z,100877.13
2023-03-15T14:50:45.884Z,100885.47
2023-03-15T14:53:16.203Z,100888.13
2023-03-15T14:55:43.994Z,100890.09
2023-03-15T14:58:14.821Z,100903.47
2023-03-15T15:00:42.993Z,100908.78
2023-03-15T15:03:16.323Z,100911.75
2023-03-15T15:05:44.233Z,100896.69
2023-03-15T15:08:14.057Z,100893.47
2023-03-15T15:10:42.734Z,100920.53
2023-03-15T15:13:58.111Z,100891.88
2023-03-15T15:16:26.401Z,100892.97
2023-03-15T15:18:54.141Z,100889.13
2023-03-15T15:21:24.957Z,100897.69
2023-03-15T15:24:00.727Z,100907.25
2023-03-15T15:26:30.171Z,100902.28
2023-03-15T15:29:00.690Z,100895.50
2023-03-15T15:31:30.100Z,100915.44
2023-03-15T15:33:58.271Z,100889.72
2023-03-15T15:36:27.449Z,100914.16
2023-03-15T15:38:55.150Z,100930.13
2023-03-15T15:41:24.755Z,100928.50
2023-03-15T15:44:00.793Z,100912.03
2023-03-15T15:46:28.740Z,100913.72
2023-03-15T15:48:56.426Z,100914.41
2023-03-15T15:51:29.178Z,100912.59
2023-03-15T15:53:59.481Z,100928.91
2023-03-15T15:56:31.990Z,100900.38
2023-03-15T15:59:01.265Z,100911.31
2023-03-15T16:01:29.149Z,100905.78
2023-03-15T16:03:57.327Z,100922.34
2023-03-15T16:06:25.032Z,100911.41
2023-03-15T16:08:53.420Z,100919.38
2023-03-15T16:11:21.944Z,100910.91
2023-03-15T16:13:51.886Z,100916.47
2023-03-15T16:16:21.570Z,100930.31
2023-03-15T16:18:49.631Z,100927.91
2023-03-15T16:21:18.795Z,100939.56
2023-03-15T16:23:47.603Z,100928.91
2023-03-15T16:26:17.444Z,100932.22
2023-03-15T16:28:46.451Z,100921.16
2023-03-15T16:31:14.169Z,100918.97
2023-03-15T16:33:43.455Z,100929.69
2023-03-15T16:36:18.084Z,100917.78
2023-03-15T16:38:45.815Z,100943.63
2023-03-15T16:41:14.380Z,100948.69
2023-03-15T16:43:42.087Z,100946.72
2023-03-15T16:46:13.816Z,100956.31
2023-03-15T16:48:42.929Z,100955.28
2023-03-15T16:51:11.538Z,100955.94
2023-03-15T16:53:39.269Z,100955.56
2023-03-15T16:56:07.273Z,100949.63
2023-03-15T16:58:34.976Z,100945.75
2023-03-15T17:01:02.878Z,100954.59
2023-03-15T17:03:32.863Z,100960.41
2023-03-15T17:06:01.999Z,100946.97
2023-03-15T17:08:29.675Z,100955.44
2023-03-15T17:10:57.405Z,100952.28
2023-03-15T17:13:27.441Z,100960.69
2023-03-15T17:15:55.245Z,100962.03
2023-03-15T17:18:24.163Z,100973.25
2023-03-15T17:20:51.930Z,100975.19
2023-03-15T17:23:21.406Z,100964.91
2023-03-15T17:25:49.865Z,100980.28
2023-03-15T17:28:17.821Z,100974.28
2023-03-15T17:30:45.728Z,100970.41
2023-03-15T17:33:13.515Z,100946.84
2023-03-15T17:35:43.721Z,100979.56
2023-03-15T17:38:16.905Z,100967.19
2023-03-15T17:40:46.404Z,100968.16
2023-03-15T17:43:17.026Z,100972.91
2023-03-15T17:45:45.115Z,100959.66
2023-03-15T17:48:13.507Z,100978.13
2023-03-15T17:50:43.737Z,100984.94
2023-03-15T17:53:16.777Z,100994.00
2023-03-15T17:55:46.610Z,100981.97
2023-03-15T17:58:19.203Z,100965.91
2023-03-15T18:00:48.541Z,100987.03
2023-03-15T18:03:17.457Z,100988.25
2023-03-15T18:05:46.112Z,100955.94
2023-03-15T18:08:14.879Z,100975.91
2023-03-15T18:10:43.545Z,100984.13
2023-03-15T18:13:15.040Z,100984.00
2023-03-15T18:15:42.730Z,100984.41
2023-03-15T18:18:10.463Z,100961.75
2023-03-15T18:20:38.577Z,100965.22
2023-03-15T18:23:06.281Z,100970.78
2023-03-15T18:25:35.926Z,100981.03
2023-03-15T18:28:03.780Z,100974.16
2023-03-15T18:30:33.708Z,100961.94
2023-03-15T18:33:01.807Z,100972.59
2023-03-15T18:35:31.662Z,100999.91
2023-03-15T18:37:59.678Z,101002.25
2023-03-15T18:40:29.210Z,101005.97
2023-03-15T18:42:57.945Z,100998.94
2023-03-15T18:45:27.926Z,101000.16
2023-03-15T18:47:57.067Z,101010.47
2023-03-15T18:50:24.752Z,101016.88
2023-03-15T18:52:52.626Z,101011.63
2023-03-15T18:55:22.748Z,101010.22
2023-03-15T18:57:51.060Z,101000.53
2023-03-15T19:00:26.117Z,101008.63
2023-03-15T19:02:55.018Z,101015.19
2023-03-15T19:05:25.013Z,101007.38
2023-03-15T19:07:53.137Z,101025.88
2023-03-15T19:10:22.147Z,101024.00
2023-03-15T19:12:52.270Z,101033.03
2023-03-15T19:15:21.107Z,101037.59
2023-03-15T19:17:51.083Z,101029.16
2023-03-15T19:20:22.082Z,101027.41
2023-03-15T19:22:51.973Z,101023.97
2023-03-15T19:25:22.010Z,101022.94
2023-03-15T19:27:49.725Z,101026.66
2023-03-15T19:30:22.211Z,101020.50
2023-03-15T19:32:50.661Z,101027.72
2023-03-15T19:35:19.607Z,101027.97
2023-03-15T19:37:48.277Z,101019.75
2023-03-15T19:40:19.899Z,101029.44
2023-03-15T19:42:48.691Z,101026.88
2023-03-15T19:45:17.441Z,101032.28
2023-03-15T19:47:45.427Z,101018.19
2023-03-15T19:50:14.229Z,101024.41
2023-03-15T19:52:46.158Z,101031.47
2023-03-15T19:55:14.558Z,101020.09
2023-03-15T19:58:05.355Z,101034.72
2023-03-15T20:00:33.099Z,101028.31
2023-03-15T20:03:00.879Z,101033.41
2023-03-15T20:05:28.611Z,101040.19
2023-03-15T20:07:56.478Z,101047.59
2023-03-15T20:10:24.561Z,101038.91
2023-03-15T20:12:59.284Z,101036.75
2023-03-15T20:15:29.334Z,101038.38
2023-03-15T20:17:57.133Z,101026.25
2023-03-15T20:20:24.937Z,101040.25
2023-03-15T20:22:52.758Z,101035.13
2023-03-15T20:25:21.441Z,101041.81
2023-03-15T20:27:49.574Z,101048.50
2023-03-15T20:30:19.901Z,101040.97
2023-03-15T20:32:47.953Z,101038.78
2023-03-15T20:35:16.050Z,101042.59
2023-03-15T20:37:43.911Z,101052.16
2023-03-15T20:40:13.389Z,101057.97
2023-03-15T20:42:41.680Z,101045.31
2023-03-15T20:45:10.793Z,101049.72
2023-03-15T20:47:39.878Z,101045.53
2023-03-15T20:50:08.917Z,101040.81
2023-03-15T20:52:36.610Z,101032.66
2023-03-15T20:55:05.912Z,101038.63
2023-03-15T20:57:34.130Z,101051.19
2023-03-15T21:00:01.809Z,101045.59
2023-03-15T21:02:29.494Z,101037.81
2023-03-15T21:04:58.719Z,101049.06
2023-03-15T21:07:26.732Z,101056.00
2023-03-15T21:09:54.403Z,101052.50
2023-03-15T21:12:22.086Z,101058.00
2023-03-15T21:14:49.753Z,101051.59
2023-03-15T21:17:17.430Z,101045.59
2023-03-15T21:20:01.891Z,101051.31
2023-03-15T21:22:29.543Z,101044.94
2023-03-15T21:24:57.303Z,101036.22
2023-03-15T21:27:26.455Z,101039.09
2023-03-15T21:29:54.370Z,101030.31
2023-03-15T21:32:22.415Z,101016.38
2023-03-15T21:34:50.309Z,101024.81
2023-03-15T21:37:19.405Z,101017.19
2023-03-15T21:39:47.167Z,101013.97
2023-03-15T21:42:14.907Z,101025.63
2023-03-15T21:44:42.890Z,101020.75
2023-03-15T21:47:11.287Z,101028.66
2023-03-15T21:49:38.978Z,101026.16
2023-03-15T21:52:06.825Z,101026.38
2023-03-15T21:54:35.936Z,101015.75
2023-03-15T21:57:04.272Z,101025.72
2023-03-15T21:59:32.068Z,101024.53
2023-03-15T22:02:01.588Z,101015.81
2023-03-15T22:04:29.405Z,101018.47
2023-03-15T22:06:57.098Z,101012.72
2023-03-15T22:09:24.794Z,101017.75
2023-03-15T22:11:53.843Z,101016.22
2023-03-15T22:14:21.843Z,101021.63
2023-03-15T22:16:49.566Z,101022.09
2023-03-15T22:19:17.630Z,101009.53
2023-03-15T22:21:45.848Z,101002.09
2023-03-15T22:24:13.561Z,101024.00
2023-03-15T22:26:54.101Z,101023.97
2023-03-15T22:29:21.793Z,101017.19
2023-03-15T22:31:49.470Z,101020.78
2023-03-15T22:34:17.147Z,101021.41
2023-03-15T22:36:45.115Z,101007.31
2023-03-15T22:39:14.365Z,101019.38
2023-03-15T22:41:42.053Z,101024.44
2023-03-15T22:44:11.156Z,101018.13
2023-03-15T22:46:38.906Z,101033.97
2023-03-15T22:49:06.618Z,101032.09
2023-03-15T22:51:34.821Z,101024.94
2023-03-15T22:54:02.519Z,101011.75
2023-03-15T22:56:30.181Z,101010.47
2023-03-15T22:58:57.897Z,101019.34
2023-03-15T23:01:27.225Z,101018.75
2023-03-15T23:03:54.989Z,101020.03
2023-03-15T23:06:22.963Z,101016.06
2023-03-15T23:08:50.957Z,101018.94
2023-03-15T23:11:18.730Z,101009.19
2023-03-15T23:13:48.543Z,101014.47
2023-03-15T23:16:16.609Z,101013.75
2023-03-15T23:18:45.876Z,101019.63
2023-03-15T23:21:14.906Z,101017.81
2023-03-15T23:23:43.838Z,101010.34
2023-03-15T23:26:15.292Z,101007.16
2023-03-15T23:28:43.145Z,100999.25
2023-03-15T23:31:10.846Z,100995.00
2023-03-15T23:33:38.689Z,100985.94
2023-03-15T23:36:08.681Z,100998.72
2023-03-15T23:38:36.392Z,101006.72
2023-03-15T23:41:05.086Z,100984.16
2023-03-15T23:43:35.348Z,100984.59
2023-03-15T23:46:05.070Z,100985.97
2023-03-15T23:48:37.088Z,100996.69
2023-03-15T23:51:05.073Z,101016.47
2023-03-15T23:53:34.690Z,101005.78
2023-03-15T23:56:02.477Z,101018.75
2023-03-15T23:58:30.269Z,101001.75
